createdAt,value
2018-07-23T00:02:12.148Z,21.28
2018-07-23T00:04:39.969Z,21.24
2018-07-23T00:07:07.805Z,21.10
2018-07-23T00:09:35.669Z,21.12
2018-07-23T00:12:03.566Z,20.97
2018-07-23T00:14:31.385Z,21.02
2018-07-23T00:16:59.230Z,21.22
2018-07-23T00:19:27.065Z,21.00
2018-07-23T00:21:54.940Z,21.41
2018-07-23T00:24:22.782Z,21.37
2018-07-23T00:26:50.639Z,21.17
2018-07-23T00:29:18.533Z,20.92
2018-07-23T00:31:46.418Z,20.78
2018-07-23T00:34:14.261Z,20.87
2018-07-23T00:36:42.091Z,20.65
2018-07-23T00:39:10.391Z,20.70
2018-07-23T00:41:38.345Z,20.78
2018-07-23T00:44:06.264Z,20.64
2018-07-23T00:46:34.114Z,20.58
2018-07-23T00:49:01.966Z,20.70
2018-07-23T00:51:29.861Z,20.72
2018-07-23T00:53:57.682Z,20.88
2018-07-23T00:56:25.512Z,20.98
2018-07-23T00:58:53.354Z,20.86
2018-07-23T01:01:21.173Z,21.14
2018-07-23T01:03:49.001Z,21.07
2018-07-23T01:06:16.825Z,20.93
2018-07-23T01:08:44.665Z,21.11
2018-07-23T01:11:12.477Z,21.16
2018-07-23T01:13:40.321Z,21.23
2018-07-23T01:16:08.137Z,21.13
2018-07-23T01:18:35.977Z,21.14
2018-07-23T01:21:03.846Z,21.52
2018-07-23T01:23:31.673Z,21.40
2018-07-23T01:25:59.517Z,21.92
2018-07-23T01:28:27.381Z,21.92
2018-07-23T01:30:55.267Z,22.05
2018-07-23T01:33:23.366Z,21.69
2018-07-23T01:35:51.221Z,21.31
2018-07-23T01:38:19.114Z,21.53
2018-07-23T01:40:46.942Z,21.88
2018-07-23T01:43:14.785Z,22.26
2018-07-23T01:45:42.689Z,22.09
2018-07-23T01:48:10.538Z,22.02
2018-07-23T01:50:38.388Z,21.55
2018-07-23T01:53:06.290Z,21.33
2018-07-23T01:55:34.188Z,21.11
2018-07-23T01:58:02.060Z,21.48
2018-07-23T02:00:29.982Z,21.48
2018-07-23T02:02:57.866Z,21.36
2018-07-23T02:05:25.722Z,21.61
2018-07-23T02:07:53.583Z,21.58
2018-07-23T02:10:21.433Z,21.71
2018-07-23T02:12:49.269Z,21.92
2018-07-23T02:15:17.134Z,21.73
2018-07-23T02:17:44.994Z,21.56
2018-07-23T02:20:12.835Z,21.63
2018-07-23T02:22:40.662Z,21.69
2018-07-23T02:25:08.473Z,21.62
2018-07-23T02:27:36.305Z,21.53
2018-07-23T02:30:04.290Z,21.39
2018-07-23T02:32:32.129Z,21.25
2018-07-23T02:35:00.225Z,21.34
2018-07-23T02:37:28.049Z,21.64
2018-07-23T02:39:55.901Z,21.77
2018-07-23T02:42:23.745Z,21.61
2018-07-23T02:44:51.570Z,21.27
2018-07-23T02:47:19.404Z,21.03
2018-07-23T02:49:47.252Z,21.18
2018-07-23T02:52:15.123Z,20.93
2018-07-23T02:54:42.969Z,20.82
2018-07-23T02:57:10.811Z,20.91
2018-07-23T02:59:38.648Z,21.17
2018-07-23T03:02:06.498Z,21.28
2018-07-23T03:04:34.308Z,21.11
2018-07-23T03:07:02.194Z,21.04
2018-07-23T03:09:30.105Z,21.21
2018-07-23T03:11:57.937Z,21.31
2018-07-23T03:14:25.756Z,21.25
2018-07-23T03:16:53.633Z,21.58
2018-07-23T03:19:21.485Z,21.59
2018-07-23T03:21:49.423Z,21.73
2018-07-23T03:24:17.225Z,21.78
2018-07-23T03:26:45.109Z,21.90
2018-07-23T03:29:13.041Z,21.82
2018-07-23T03:34:08.105Z,21.90
2018-07-23T03:36:35.892Z,21.97
2018-07-23T03:39:05.699Z,21.95
2018-07-23T03:41:33.473Z,22.05
2018-07-23T03:44:01.265Z,22.09
2018-07-23T03:46:29.125Z,22.17
2018-07-23T03:48:56.907Z,22.02
2018-07-23T03:51:24.742Z,22.23
2018-07-23T03:53:53.010Z,22.39
2018-07-23T03:56:20.907Z,22.48
2018-07-23T03:58:48.806Z,22.72
2018-07-23T04:01:17.418Z,22.88
2018-07-23T04:03:45.237Z,22.96
2018-07-23T04:06:13.094Z,23.03
2018-07-23T04:08:40.945Z,23.13
2018-07-23T04:11:08.867Z,23.18
2018-07-23T04:13:36.700Z,23.39
2018-07-23T04:16:04.824Z,23.65
2018-07-23T04:18:32.639Z,23.78
2018-07-23T04:21:00.483Z,23.78
2018-07-23T04:23:28.321Z,23.76
2018-07-23T04:25:56.146Z,23.84
2018-07-23T04:28:24.059Z,24.20
2018-07-23T04:30:52.166Z,24.79
2018-07-23T04:33:19.992Z,28.91
2018-07-23T04:35:47.806Z,31.95
2018-07-23T04:38:15.653Z,35.69
2018-07-23T04:40:43.493Z,37.60
2018-07-23T04:43:11.306Z,38.94
2018-07-23T04:45:39.132Z,38.66
2018-07-23T04:48:06.949Z,36.83
2018-07-23T04:50:34.771Z,36.78
2018-07-23T04:53:02.642Z,37.01
2018-07-23T04:55:30.471Z,36.67
2018-07-23T04:57:58.293Z,37.30
2018-07-23T05:00:26.121Z,38.71
2018-07-23T05:02:53.956Z,39.35
2018-07-23T05:05:21.748Z,37.63
2018-07-23T05:07:49.558Z,33.58
2018-07-23T05:10:17.627Z,32.83
2018-07-23T05:12:45.406Z,32.86
2018-07-23T05:15:13.303Z,32.25
2018-07-23T05:17:41.116Z,31.04
2018-07-23T05:20:08.977Z,30.76
2018-07-23T05:22:37.381Z,30.16
2018-07-23T05:25:05.200Z,29.17
2018-07-23T05:27:33.014Z,29.63
2018-07-23T05:30:00.882Z,29.49
2018-07-23T05:32:28.720Z,28.00
2018-07-23T05:34:56.585Z,29.09
2018-07-23T05:37:24.474Z,31.20
2018-07-23T05:39:52.324Z,32.78
2018-07-23T05:42:20.222Z,34.20
2018-07-23T05:44:48.053Z,33.97
2018-07-23T05:47:15.877Z,34.95
2018-07-23T05:49:43.722Z,35.11
2018-07-23T05:52:11.553Z,36.51
2018-07-23T05:54:39.381Z,34.18
2018-07-23T05:57:07.544Z,35.40
2018-07-23T05:59:35.382Z,36.86
2018-07-23T06:02:03.269Z,37.68
2018-07-23T06:04:31.142Z,37.93
2018-07-23T06:06:59.074Z,38.82
2018-07-23T06:09:26.884Z,37.74
2018-07-23T06:11:54.714Z,38.06
2018-07-23T06:14:22.831Z,38.17
2018-07-23T06:16:50.693Z,33.67
2018-07-23T06:19:18.549Z,32.84
2018-07-23T06:21:46.423Z,30.38
2018-07-23T06:24:14.287Z,29.42
2018-07-23T06:26:42.106Z,29.00
2018-07-23T06:29:09.998Z,29.92
2018-07-23T06:31:37.826Z,27.99
2018-07-23T06:34:05.741Z,27.79
2018-07-23T06:36:33.790Z,27.81
2018-07-23T06:39:01.648Z,28.69
2018-07-23T06:41:29.614Z,29.06
2018-07-23T06:43:57.533Z,32.52
2018-07-23T06:46:25.374Z,34.00
2018-07-23T06:48:53.251Z,33.54
2018-07-23T06:51:21.077Z,32.19
2018-07-23T06:53:48.895Z,33.81
2018-07-23T06:56:16.767Z,34.42
2018-07-23T06:58:44.621Z,35.57
2018-07-23T07:01:12.508Z,33.59
2018-07-23T07:03:40.370Z,32.19
2018-07-23T07:06:08.238Z,31.93
2018-07-23T07:08:36.169Z,32.13
2018-07-23T07:11:04.147Z,32.59
2018-07-23T07:13:32.064Z,32.96
2018-07-23T07:15:59.957Z,33.32
2018-07-23T07:18:28.152Z,33.82
2018-07-23T07:20:55.977Z,34.05
2018-07-23T07:23:23.819Z,33.42
2018-07-23T07:25:51.703Z,33.41
2018-07-23T07:28:19.531Z,31.93
2018-07-23T07:30:47.389Z,32.75
2018-07-23T07:33:15.261Z,34.10
2018-07-23T07:35:43.122Z,34.47
2018-07-23T07:38:11.065Z,34.20
2018-07-23T07:40:39.529Z,34.27
2018-07-23T07:43:07.436Z,35.46
2018-07-23T07:45:35.306Z,34.00
2018-07-23T07:48:03.213Z,31.80
2018-07-23T07:50:31.202Z,32.13
2018-07-23T07:52:59.081Z,31.71
2018-07-23T07:55:26.929Z,33.12
2018-07-23T07:57:54.992Z,32.53
2018-07-23T08:00:22.882Z,32.08
2018-07-23T08:02:50.758Z,32.66
2018-07-23T08:05:18.794Z,32.45
2018-07-23T08:07:46.982Z,33.08
2018-07-23T08:10:14.955Z,34.11
2018-07-23T08:12:42.886Z,34.15
2018-07-23T08:15:10.769Z,34.30
2018-07-23T08:17:38.663Z,35.02
2018-07-23T08:20:06.611Z,35.05
2018-07-23T08:22:34.631Z,35.17
2018-07-23T08:25:02.477Z,35.00
2018-07-23T08:27:30.350Z,34.85
2018-07-23T08:29:58.178Z,34.94
2018-07-23T08:32:26.152Z,34.81
2018-07-23T08:34:53.986Z,33.61
2018-07-23T08:37:21.859Z,33.92
2018-07-23T08:39:49.799Z,33.75
2018-07-23T08:42:17.691Z,33.58
2018-07-23T08:44:45.562Z,33.90
2018-07-23T08:47:13.420Z,33.34
2018-07-23T08:49:41.751Z,32.72
2018-07-23T08:52:09.632Z,32.33
2018-07-23T08:54:37.466Z,32.27
2018-07-23T08:57:05.380Z,32.40
2018-07-23T08:59:33.276Z,32.51
2018-07-23T09:02:01.108Z,32.98
2018-07-23T09:04:28.997Z,32.81
2018-07-23T09:06:56.886Z,30.81
2018-07-23T09:09:24.718Z,31.35
2018-07-23T09:11:52.541Z,31.80
2018-07-23T09:14:21.157Z,32.61
2018-07-23T09:16:49.060Z,33.48
2018-07-23T09:19:16.921Z,34.66
2018-07-23T09:21:44.805Z,34.74
2018-07-23T09:24:12.667Z,34.35
2018-07-23T09:26:40.511Z,33.91
2018-07-23T09:29:08.388Z,33.18
2018-07-23T09:31:36.242Z,33.14
2018-07-23T09:34:09.629Z,33.33
2018-07-23T09:36:37.737Z,32.45
2018-07-23T09:39:08.062Z,33.02
2018-07-23T09:41:35.964Z,33.59
2018-07-23T09:44:03.871Z,34.42
2018-07-23T09:46:31.726Z,34.21
2018-07-23T09:48:59.567Z,33.25
2018-07-23T09:51:27.418Z,32.76
2018-07-23T09:53:55.317Z,31.12
2018-07-23T09:56:23.179Z,31.19
2018-07-23T09:58:51.092Z,31.51
2018-07-23T10:01:19.467Z,32.19
2018-07-23T10:03:47.679Z,32.76
2018-07-23T10:06:15.577Z,31.46
2018-07-23T10:08:43.489Z,29.97
2018-07-23T10:11:11.346Z,30.53
2018-07-23T10:13:39.192Z,31.13
2018-07-23T10:16:07.098Z,31.21
2018-07-23T10:18:34.932Z,31.70
2018-07-23T10:21:02.841Z,30.66
2018-07-23T10:23:30.734Z,29.64
2018-07-23T10:25:58.593Z,29.83
2018-07-23T10:28:26.573Z,29.98
2018-07-23T10:30:54.478Z,29.90
2018-07-23T10:33:22.322Z,29.45
2018-07-23T10:35:50.196Z,29.52
2018-07-23T10:38:18.070Z,30.71
2018-07-23T10:40:45.910Z,31.56
2018-07-23T10:43:13.738Z,31.34
2018-07-23T10:45:41.605Z,32.18
2018-07-23T10:48:09.465Z,32.19
2018-07-23T10:50:37.313Z,32.10
2018-07-23T10:53:05.169Z,31.05
2018-07-23T10:55:33.005Z,31.69
2018-07-23T10:58:00.835Z,32.88
2018-07-23T11:00:28.715Z,33.04
2018-07-23T11:02:56.605Z,33.92
2018-07-23T11:05:24.459Z,33.96
2018-07-23T11:07:52.310Z,34.75
2018-07-23T11:10:21.018Z,35.28
2018-07-23T11:12:48.926Z,33.88
2018-07-23T11:15:16.761Z,34.60
2018-07-23T11:17:44.609Z,33.12
2018-07-23T11:20:12.726Z,34.31
2018-07-23T11:22:41.060Z,32.83
2018-07-23T11:25:38.595Z,31.30
2018-07-23T11:27:36.805Z,31.36
2018-07-23T11:30:05.317Z,32.66
2018-07-23T11:32:33.606Z,32.20
2018-07-23T11:35:01.565Z,32.88
2018-07-23T11:37:29.513Z,33.03
2018-07-23T11:39:57.368Z,33.20
2018-07-23T11:42:25.173Z,33.00
2018-07-23T11:44:53.026Z,32.51
2018-07-23T11:47:20.840Z,30.70
2018-07-23T11:49:48.697Z,30.91
2018-07-23T11:52:16.562Z,31.29
2018-07-23T11:54:44.369Z,31.47
2018-07-23T11:57:12.553Z,30.82
2018-07-23T11:59:40.381Z,30.34
2018-07-23T12:02:08.555Z,30.77
2018-07-23T12:04:36.530Z,30.37
2018-07-23T12:07:04.926Z,29.71
2018-07-23T12:09:32.774Z,29.47
2018-07-23T12:12:00.626Z,29.42
2018-07-23T12:14:28.482Z,28.35
2018-07-23T12:16:56.720Z,26.94
2018-07-23T12:19:24.561Z,26.83
2018-07-23T12:21:52.365Z,26.01
2018-07-23T12:24:20.213Z,25.58
2018-07-23T12:26:48.050Z,25.36
2018-07-23T12:29:15.885Z,25.17
2018-07-23T12:31:43.735Z,25.56
2018-07-23T12:34:11.555Z,26.13
2018-07-23T12:36:39.381Z,26.32
2018-07-23T12:39:09.557Z,26.32
2018-07-23T12:41:37.431Z,26.32
2018-07-23T12:44:05.270Z,25.90
2018-07-23T12:46:33.262Z,26.06
2018-07-23T12:49:01.089Z,26.22
2018-07-23T12:51:28.952Z,26.55
2018-07-23T12:53:56.805Z,27.06
2018-07-23T12:56:24.715Z,27.21
2018-07-23T12:58:52.569Z,27.06
2018-07-23T13:01:20.405Z,27.60
2018-07-23T13:03:48.253Z,27.76
2018-07-23T13:06:16.089Z,28.13
2018-07-23T13:08:43.969Z,28.63
2018-07-23T13:11:11.869Z,29.04
2018-07-23T13:13:39.709Z,29.62
2018-07-23T13:16:07.600Z,29.80
2018-07-23T13:18:35.828Z,29.56
2018-07-23T13:21:03.768Z,29.67
2018-07-23T13:23:31.645Z,29.78
2018-07-23T13:25:59.498Z,29.94
2018-07-23T13:28:27.375Z,30.09
2018-07-23T13:30:55.238Z,30.08
2018-07-23T13:33:23.049Z,29.48
2018-07-23T13:35:50.877Z,29.38
2018-07-23T13:38:18.802Z,29.48
2018-07-23T13:40:46.659Z,29.36
2018-07-23T13:43:14.521Z,29.98
2018-07-23T13:45:42.373Z,30.74
2018-07-23T13:48:10.272Z,31.28
2018-07-23T13:50:38.153Z,31.61
2018-07-23T13:53:06.150Z,31.63
2018-07-23T13:55:34.375Z,31.71
2018-07-23T13:58:02.262Z,31.91
2018-07-23T14:00:30.584Z,31.93
2018-07-23T14:02:58.470Z,31.37
2018-07-23T14:05:26.390Z,30.53
2018-07-23T14:07:54.256Z,31.32
2018-07-23T14:10:22.135Z,31.59
2018-07-23T14:12:49.998Z,31.98
2018-07-23T14:15:17.896Z,32.24
2018-07-23T14:17:45.754Z,31.64
2018-07-23T14:20:13.629Z,31.56
2018-07-23T14:22:41.502Z,30.89
2018-07-23T14:25:09.358Z,30.41
2018-07-23T14:27:37.227Z,30.73
2018-07-23T14:30:05.230Z,29.88
2018-07-23T14:32:33.167Z,29.95
2018-07-23T14:35:01.054Z,29.70
2018-07-23T14:37:28.920Z,29.56
2018-07-23T14:39:56.840Z,28.97
2018-07-23T14:42:24.761Z,29.26
2018-07-23T14:44:52.658Z,29.25
2018-07-23T14:47:20.573Z,29.11
2018-07-23T14:49:48.557Z,28.47
2018-07-23T14:52:16.472Z,28.01
2018-07-23T14:54:44.357Z,28.36
2018-07-23T14:57:12.249Z,28.54
2018-07-23T14:59:40.174Z,28.52
2018-07-23T15:02:08.071Z,28.25
2018-07-23T15:04:35.950Z,28.72
2018-07-23T15:07:03.986Z,28.48
2018-07-23T15:09:31.869Z,28.58
2018-07-23T15:11:59.833Z,28.52
2018-07-23T15:14:27.697Z,29.49
2018-07-23T15:16:55.583Z,30.07
2018-07-23T15:19:23.457Z,29.40
2018-07-23T15:21:51.354Z,29.50
2018-07-23T15:24:19.441Z,29.16
2018-07-23T15:26:47.662Z,28.48
2018-07-23T15:29:16.539Z,28.20
2018-07-23T15:31:44.454Z,28.31
2018-07-23T15:34:12.351Z,28.90
2018-07-23T15:36:40.627Z,28.86
2018-07-23T15:39:10.069Z,28.82
2018-07-23T15:41:38.316Z,28.63
2018-07-23T15:44:06.338Z,28.04
2018-07-23T15:46:34.217Z,27.80
2018-07-23T15:49:02.105Z,27.78
2018-07-23T15:51:29.968Z,27.95
2018-07-23T15:53:58.305Z,28.16
2018-07-23T15:56:26.301Z,28.51
2018-07-23T15:58:54.610Z,28.19
2018-07-23T16:01:22.591Z,27.73
2018-07-23T16:03:50.485Z,28.03
2018-07-23T16:06:18.428Z,28.13
2018-07-23T16:08:46.342Z,28.14
2018-07-23T16:11:14.683Z,28.17
2018-07-23T16:13:42.549Z,27.75
2018-07-23T16:16:10.405Z,27.97
2018-07-23T16:18:38.281Z,27.55
2018-07-23T16:21:06.243Z,27.31
2018-07-23T16:23:34.160Z,27.60
2018-07-23T16:26:02.042Z,27.51
2018-07-23T16:28:29.918Z,27.21
2018-07-23T16:30:57.833Z,27.22
2018-07-23T16:33:25.827Z,27.20
2018-07-23T16:35:53.698Z,27.08
2018-07-23T16:38:21.619Z,27.13
2018-07-23T16:40:49.874Z,26.64
2018-07-23T16:43:17.764Z,26.63
2018-07-23T16:45:45.698Z,26.60
2018-07-23T16:48:13.594Z,26.66
2018-07-23T16:50:41.509Z,26.34
2018-07-23T16:53:09.645Z,26.02
2018-07-23T16:55:37.525Z,25.90
2018-07-23T16:58:05.448Z,26.15
2018-07-23T17:00:33.614Z,26.13
2018-07-23T17:03:01.453Z,25.96
2018-07-23T17:05:29.342Z,25.40
2018-07-23T17:07:57.199Z,24.95
2018-07-23T17:10:25.201Z,24.46
2018-07-23T17:12:53.048Z,23.74
2018-07-23T17:15:20.879Z,23.58
2018-07-23T17:17:48.823Z,23.57
2018-07-23T17:20:16.681Z,23.76
2018-07-23T17:22:44.529Z,23.90
2018-07-23T17:25:12.367Z,23.94
2018-07-23T17:27:40.286Z,23.79
2018-07-23T17:30:08.205Z,23.71
2018-07-23T17:32:36.027Z,23.73
2018-07-23T17:35:03.941Z,23.61
2018-07-23T17:37:31.817Z,23.42
2018-07-23T17:39:59.654Z,23.53
2018-07-23T17:42:27.532Z,23.57
2018-07-23T17:44:55.417Z,23.44
2018-07-23T17:47:23.282Z,23.39
2018-07-23T17:49:51.156Z,23.41
2018-07-23T17:52:18.994Z,23.32
2018-07-23T17:54:46.875Z,23.45
2018-07-23T17:57:14.755Z,23.45
2018-07-23T17:59:42.607Z,23.42
2018-07-23T18:02:10.484Z,23.31
2018-07-23T18:04:38.318Z,23.31
2018-07-23T18:07:06.222Z,23.29
2018-07-23T18:09:34.154Z,23.36
2018-07-23T18:12:01.997Z,23.30
2018-07-23T18:14:29.863Z,23.30
2018-07-23T18:16:57.698Z,23.35
2018-07-23T18:19:25.587Z,23.37
2018-07-23T18:21:53.445Z,23.34
2018-07-23T18:24:21.292Z,23.23
2018-07-23T18:26:49.193Z,23.12
2018-07-23T18:29:17.100Z,23.29
2018-07-23T18:31:44.980Z,23.27
2018-07-23T18:34:12.849Z,23.11
2018-07-23T18:36:40.761Z,23.13
2018-07-23T18:39:10.481Z,23.07
2018-07-23T18:41:38.541Z,23.17
2018-07-23T18:44:06.679Z,23.18
2018-07-23T18:46:34.569Z,23.14
2018-07-23T18:49:23.847Z,22.95
2018-07-23T18:51:52.749Z,22.80
2018-07-23T18:54:22.638Z,22.77
2018-07-23T18:56:53.224Z,22.77
2018-07-23T18:59:21.324Z,22.99
2018-07-23T19:01:50.201Z,23.14
2018-07-23T19:04:18.255Z,23.06
2018-07-23T19:06:46.237Z,23.31
2018-07-23T19:09:16.449Z,23.27
2018-07-23T19:11:45.385Z,22.93
2018-07-23T19:14:14.056Z,23.14
2018-07-23T19:16:42.345Z,22.81
2018-07-23T19:19:10.395Z,23.00
2018-07-23T19:21:38.343Z,23.06
2018-07-23T19:24:06.297Z,22.89
2018-07-23T19:26:34.238Z,22.85
2018-07-23T19:29:02.190Z,22.98
2018-07-23T19:31:30.333Z,22.95
2018-07-23T19:33:59.324Z,22.83
2018-07-23T19:36:27.412Z,22.80
2018-07-23T19:38:55.897Z,22.86
2018-07-23T19:41:24.310Z,22.90
2018-07-23T19:43:52.566Z,22.82
2018-07-23T19:46:20.576Z,23.01
2018-07-23T19:48:48.461Z,23.22
2018-07-23T19:51:16.389Z,22.94
2018-07-23T19:53:44.301Z,23.00
2018-07-23T19:56:12.270Z,23.12
2018-07-23T19:58:40.941Z,23.20
2018-07-23T20:01:08.951Z,23.18
2018-07-23T20:03:36.836Z,23.25
2018-07-23T20:06:04.784Z,22.77
2018-07-23T20:08:32.696Z,22.74
2018-07-23T20:11:00.644Z,22.61
2018-07-23T20:13:28.565Z,22.50
2018-07-23T20:15:56.957Z,22.37
2018-07-23T20:18:24.908Z,22.28
2018-07-23T20:20:52.993Z,22.09
2018-07-23T20:23:20.972Z,22.16
2018-07-23T20:25:48.905Z,22.38
2018-07-23T20:28:16.832Z,22.26
2018-07-23T20:30:44.723Z,22.16
2018-07-23T20:33:12.621Z,22.12
2018-07-23T20:35:40.560Z,22.26
2018-07-23T20:38:08.575Z,22.17
2018-07-23T20:40:36.550Z,22.50
2018-07-23T20:43:04.530Z,22.60
2018-07-23T20:45:32.465Z,22.71
2018-07-23T20:48:00.338Z,22.54
2018-07-23T20:50:28.527Z,22.48
2018-07-23T20:52:56.441Z,22.67
2018-07-23T20:55:24.313Z,22.36
2018-07-23T20:57:52.168Z,22.61
2018-07-23T21:00:20.101Z,22.39
2018-07-23T21:02:48.002Z,22.19
2018-07-23T21:05:15.887Z,22.16
2018-07-23T21:07:43.751Z,22.29
2018-07-23T21:10:11.688Z,22.17
2018-07-23T21:12:39.568Z,22.24
2018-07-23T21:15:08.167Z,22.15
2018-07-23T21:17:36.008Z,22.23
2018-07-23T21:20:05.479Z,22.42
2018-07-23T21:22:33.376Z,22.49
2018-07-23T21:25:01.528Z,22.54
2018-07-23T21:27:29.385Z,22.79
2018-07-23T21:29:57.283Z,22.97
2018-07-23T21:32:25.156Z,23.16
2018-07-23T21:34:52.983Z,23.29
2018-07-23T21:37:20.848Z,23.32
2018-07-23T21:39:48.740Z,23.32
2018-07-23T21:42:16.628Z,23.19
2018-07-23T21:44:44.531Z,22.96
2018-07-23T21:47:12.370Z,22.74
2018-07-23T21:49:40.226Z,22.69
2018-07-23T21:52:08.088Z,22.75
2018-07-23T21:54:35.951Z,22.97
2018-07-23T21:57:03.820Z,23.33
2018-07-23T21:59:31.653Z,23.46
2018-07-23T22:01:59.584Z,23.38
2018-07-23T22:04:27.431Z,23.37
2018-07-23T22:06:55.291Z,23.43
2018-07-23T22:09:23.157Z,23.12
2018-07-23T22:11:50.972Z,23.09
2018-07-23T22:14:18.909Z,23.08
2018-07-23T22:16:46.779Z,22.94
2018-07-23T22:19:14.594Z,22.72
2018-07-23T22:21:42.434Z,22.61
2018-07-23T22:24:10.246Z,22.78
2018-07-23T22:26:38.161Z,22.89
2018-07-23T22:29:06.065Z,23.11
2018-07-23T22:31:33.942Z,23.08
2018-07-23T22:34:01.780Z,22.79
2018-07-23T22:36:29.645Z,22.93
2018-07-23T22:38:57.593Z,22.99
2018-07-23T22:41:25.424Z,23.08
2018-07-23T22:43:53.233Z,23.04
2018-07-23T22:46:21.141Z,23.16
2018-07-23T22:48:49.294Z,23.21
2018-07-23T22:51:17.153Z,23.21
2018-07-23T22:53:44.969Z,22.95
2018-07-23T22:56:12.809Z,22.80
2018-07-23T22:58:40.676Z,22.70
2018-07-23T23:01:08.604Z,22.81
2018-07-23T23:03:36.461Z,22.89
2018-07-23T23:06:04.343Z,22.98
2018-07-23T23:08:32.226Z,22.88
2018-07-23T23:11:00.121Z,22.85
2018-07-23T23:13:27.979Z,22.87
2018-07-23T23:15:55.845Z,22.61
2018-07-23T23:18:23.702Z,22.74
2018-07-23T23:20:51.546Z,22.80
2018-07-23T23:23:19.397Z,22.76
2018-07-23T23:25:47.267Z,22.85
2018-07-23T23:28:15.101Z,22.96
2018-07-23T23:30:42.949Z,23.00
2018-07-23T23:33:10.795Z,22.95
2018-07-23T23:35:38.646Z,22.81
2018-07-23T23:38:06.494Z,22.73
2018-07-23T23:40:34.382Z,22.62
2018-07-23T23:43:02.270Z,22.80
2018-07-23T23:45:30.097Z,22.86
2018-07-23T23:47:57.924Z,22.89
2018-07-23T23:50:25.757Z,22.59
2018-07-23T23:52:53.593Z,22.80
2018-07-23T23:55:21.417Z,22.60
2018-07-23T23:57:49.217Z,22.55
